Terminal Aerodrome Forecast
Issued by NWS

Home | Current Version | Previous Version | Graphics & Text | Print | Product List | Glossary On
Versions: 1 2 3 4 5 6 7 8 9 10 11 12 13 14 15 16 17 18 19 20 21 22 23 24 25
000
FTUS43 KGRB 231700
TAFATW
TAF
KATW 231726Z 2318/2418 10005KT 1/4SM FG VV003
      TEMPO 2318/2321 1SM -DZ BR SCT003 OVC006
     FM232100 19006KT 3SM BR BKN006 OVC012
      TEMPO 2321/2401 6SM BR SCT006 OVC012
     FM240100 18004KT 4SM BR BKN010 OVC020
     FM240500 VRB03KT 4SM BR OVC006
     FM240900 VRB03KT 3SM BR OVC003
     FM241500 01008KT 5SM BR OVC006=

USA.gov is the U.S. government's official web portal to all federal, state and local government web resources and services.